Ste Anne De Bell 1

CWVQ · Quebec, 加拿大

使用的METAR站距离机场15 NM。
罗盘
风向 的 风向 的 风向 到 风向 050°
风: 4 kt, 2 beaufort

添加一条跑道以查看侧风和逆风信息。

添置 跑道
0 ft 6.000 12.000 18.000 24.000 30.000
Cloud Cloud Cloud Cloud
SCT 25.000
METAR CYMX 271500Z 05004KT 350V080 45SM SCT250 02/M06 A2984 RMK CI3 SLP112

METAR Ste Anne De Bell 1 - CWVQ

Ste Anne De Bell 1是,加拿大中的未知。 该机场位于纬度45,43333和经度-73,93333。 本场的ICAO机场代码为CWVQ。 机场在Montreal FIR中。

该航空气象观测是针对Montreal International (Mirabel) Airport在2024年2月27日 10:00, 当地时间进行的。

机场观察

风向为050°,速度为4 kt。 风向在350°和080°之间变化。

可见度为45 mi。

有疏云,零星散落的云朵在25.000 ft的高度。 没有观察到天花板。

温度为2 °C,阵风为-2 °C。 露点为-6 °C,相对湿度为56%。 海平面上的气压为29,84 inHg (QNH)。

白天

今天,太阳从06:37升起,在17:39降落。 这适用于Ste Anne De Bell 1,世界夏令时可能有所不同。 当地时间与世界标准时间之间的时差为-5 小时。 当前,没有夏令时有效。

公司介绍

我们没有关于这个机场的公司信息。

体会

到Vliegles.nl去找飞行课程,跳伞和其他飞行体验。 浏览页面,了解Ste Anne De Bell 1附近所有可用的活动。 你也可以使用搜索功能来寻找你所在地附近的特定飞行课程、跳伞或其他飞行体验。

乌云

25.000 ft SCT 疏云,零星散落的云朵

温度 & 天气

温度 2 °C
露点 -6 °C
相对湿度 56%
风寒 -2 °C
Kp-index 0 (0-9)

评论

SLP112海平面压力为29,86 inHg (29,86 inHg)
CI3

白天

日出
06:38
中午
12:08
日落
17:39 (6:44)

小工具

你想在你的网站上有一个关于Ste Anne De Bell 1的当前航空天气(METAR)的小部件吗?

显示HTML代码
?>